sensor_id;sensor_type;location;lat;lon;timestamp;P1;durP1;ratioP1;P2;durP2;ratioP2
21181;SDS011;10749;46.296;7.524;2023-02-26T00:01:45;7.83;;;3.77;;
21181;SDS011;10749;46.296;7.524;2023-02-26T00:04:11;7.07;;;4.43;;
21181;SDS011;10749;46.296;7.524;2023-02-26T00:06:37;6.80;;;3.90;;
21181;SDS011;10749;46.296;7.524;2023-02-26T00:09:16;7.27;;;3.77;;
21181;SDS011;10749;46.296;7.524;2023-02-26T00:11:41;6.40;;;3.80;;
21181;SDS011;10749;46.296;7.524;2023-02-26T00:14:08;7.43;;;4.37;;
21181;SDS011;10749;46.296;7.524;2023-02-26T00:16:37;6.17;;;3.90;;
21181;SDS011;10749;46.296;7.524;2023-02-26T00:19:04;5.27;;;4.07;;
21181;SDS011;10749;46.296;7.524;2023-02-26T00:21:31;7.70;;;4.00;;
21181;SDS011;10749;46.296;7.524;2023-02-26T00:23:58;7.90;;;4.07;;
21181;SDS011;10749;46.296;7.524;2023-02-26T00:26:24;5.27;;;3.83;;
21181;SDS011;10749;46.296;7.524;2023-02-26T00:28:50;8.50;;;4.50;;
21181;SDS011;10749;46.296;7.524;2023-02-26T00:31:16;6.40;;;4.40;;
21181;SDS011;10749;46.296;7.524;2023-02-26T00:33:44;7.50;;;4.67;;
21181;SDS011;10749;46.296;7.524;2023-02-26T00:36:20;7.03;;;3.80;;
21181;SDS011;10749;46.296;7.524;2023-02-26T00:39:13;8.73;;;4.17;;
21181;SDS011;10749;46.296;7.524;2023-02-26T00:41:56;6.27;;;3.63;;
21181;SDS011;10749;46.296;7.524;2023-02-26T00:44:21;5.97;;;3.90;;
21181;SDS011;10749;46.296;7.524;2023-02-26T00:46:55;5.60;;;3.80;;
21181;SDS011;10749;46.296;7.524;2023-02-26T00:52:43;8.87;;;3.83;;
21181;SDS011;10749;46.296;7.524;2023-02-26T00:55:10;6.97;;;3.90;;
21181;SDS011;10749;46.296;7.524;2023-02-26T00:57:35;5.57;;;3.73;;
21181;SDS011;10749;46.296;7.524;2023-02-26T01:00:01;7.07;;;4.20;;
21181;SDS011;10749;46.296;7.524;2023-02-26T01:02:29;4.27;;;3.43;;
21181;SDS011;10749;46.296;7.524;2023-02-26T01:04:55;4.83;;;3.70;;
21181;SDS011;10749;46.296;7.524;2023-02-26T01:07:22;7.97;;;4.10;;
21181;SDS011;10749;46.296;7.524;2023-02-26T01:09:48;5.30;;;3.70;;
21181;SDS011;10749;46.296;7.524;2023-02-26T01:12:14;7.27;;;3.97;;
21181;SDS011;10749;46.296;7.524;2023-02-26T01:14:41;5.97;;;3.80;;
21181;SDS011;10749;46.296;7.524;2023-02-26T01:17:10;6.30;;;4.03;;
21181;SDS011;10749;46.296;7.524;2023-02-26T01:22:19;6.50;;;3.80;;
21181;SDS011;10749;46.296;7.524;2023-02-26T01:24:51;5.20;;;3.70;;
21181;SDS011;10749;46.296;7.524;2023-02-26T01:27:20;5.13;;;3.13;;
21181;SDS011;10749;46.296;7.524;2023-02-26T01:29:46;5.90;;;3.67;;
21181;SDS011;10749;46.296;7.524;2023-02-26T01:32:14;7.33;;;3.30;;
21181;SDS011;10749;46.296;7.524;2023-02-26T01:37:34;6.03;;;3.30;;
21181;SDS011;10749;46.296;7.524;2023-02-26T01:43:02;6.43;;;3.00;;
21181;SDS011;10749;46.296;7.524;2023-02-26T01:45:53;5.90;;;3.37;;
21181;SDS011;10749;46.296;7.524;2023-02-26T01:48:30;6.07;;;3.10;;
21181;SDS011;10749;46.296;7.524;2023-02-26T01:51:12;5.50;;;3.00;;
21181;SDS011;10749;46.296;7.524;2023-02-26T01:53:37;7.00;;;3.07;;
21181;SDS011;10749;46.296;7.524;2023-02-26T01:56:04;4.30;;;3.23;;
21181;SDS011;10749;46.296;7.524;2023-02-26T01:58:36;4.03;;;2.90;;
21181;SDS011;10749;46.296;7.524;2023-02-26T02:01:03;6.23;;;3.33;;
21181;SDS011;10749;46.296;7.524;2023-02-26T02:03:29;5.27;;;3.20;;
21181;SDS011;10749;46.296;7.524;2023-02-26T02:05:59;6.20;;;3.53;;
21181;SDS011;10749;46.296;7.524;2023-02-26T02:08:29;5.73;;;3.30;;
21181;SDS011;10749;46.296;7.524;2023-02-26T02:10:59;9.40;;;3.37;;
21181;SDS011;10749;46.296;7.524;2023-02-26T02:14:08;4.63;;;3.60;;
21181;SDS011;10749;46.296;7.524;2023-02-26T02:28:22;6.67;;;3.47;;
21181;SDS011;10749;46.296;7.524;2023-02-26T02:31:14;6.00;;;3.03;;
21181;SDS011;10749;46.296;7.524;2023-02-26T02:33:52;4.10;;;2.80;;
21181;SDS011;10749;46.296;7.524;2023-02-26T02:36:23;5.17;;;3.10;;
21181;SDS011;10749;46.296;7.524;2023-02-26T02:39:00;4.50;;;2.93;;
21181;SDS011;10749;46.296;7.524;2023-02-26T02:41:31;5.13;;;3.00;;
21181;SDS011;10749;46.296;7.524;2023-02-26T02:44:03;4.70;;;2.77;;
21181;SDS011;10749;46.296;7.524;2023-02-26T02:46:33;5.83;;;2.67;;
21181;SDS011;10749;46.296;7.524;2023-02-26T02:49:06;4.87;;;3.30;;
21181;SDS011;10749;46.296;7.524;2023-02-26T02:51:41;4.03;;;2.90;;
21181;SDS011;10749;46.296;7.524;2023-02-26T02:54:14;5.07;;;2.80;;
21181;SDS011;10749;46.296;7.524;2023-02-26T02:59:33;6.63;;;3.23;;
21181;SDS011;10749;46.296;7.524;2023-02-26T03:02:11;4.20;;;2.40;;
21181;SDS011;10749;46.296;7.524;2023-02-26T03:04:37;4.93;;;2.90;;
21181;SDS011;10749;46.296;7.524;2023-02-26T03:07:04;4.60;;;2.70;;
21181;SDS011;10749;46.296;7.524;2023-02-26T03:09:29;6.10;;;2.87;;
21181;SDS011;10749;46.296;7.524;2023-02-26T03:11:55;7.00;;;3.07;;
21181;SDS011;10749;46.296;7.524;2023-02-26T03:14:20;4.10;;;2.30;;
21181;SDS011;10749;46.296;7.524;2023-02-26T03:21:53;4.17;;;2.40;;
21181;SDS011;10749;46.296;7.524;2023-02-26T03:24:27;5.47;;;2.50;;
21181;SDS011;10749;46.296;7.524;2023-02-26T03:27:00;4.83;;;2.10;;
21181;SDS011;10749;46.296;7.524;2023-02-26T03:32:22;3.90;;;2.37;;
21181;SDS011;10749;46.296;7.524;2023-02-26T03:34:53;3.93;;;2.60;;
21181;SDS011;10749;46.296;7.524;2023-02-26T03:40:24;4.10;;;2.27;;
21181;SDS011;10749;46.296;7.524;2023-02-26T03:43:06;3.07;;;2.03;;
21181;SDS011;10749;46.296;7.524;2023-02-26T03:45:36;5.33;;;2.80;;
21181;SDS011;10749;46.296;7.524;2023-02-26T03:48:04;3.63;;;2.40;;
21181;SDS011;10749;46.296;7.524;2023-02-26T03:50:36;5.20;;;2.60;;
21181;SDS011;10749;46.296;7.524;2023-02-26T03:53:06;4.07;;;2.63;;
21181;SDS011;10749;46.296;7.524;2023-02-26T03:58:30;4.73;;;2.53;;
21181;SDS011;10749;46.296;7.524;2023-02-26T04:00:58;3.30;;;2.47;;
21181;SDS011;10749;46.296;7.524;2023-02-26T04:03:31;5.23;;;2.63;;
21181;SDS011;10749;46.296;7.524;2023-02-26T04:06:00;5.87;;;2.53;;
21181;SDS011;10749;46.296;7.524;2023-02-26T04:08:27;3.13;;;2.17;;
21181;SDS011;10749;46.296;7.524;2023-02-26T04:10:54;6.63;;;2.57;;
21181;SDS011;10749;46.296;7.524;2023-02-26T04:13:23;5.60;;;2.53;;
21181;SDS011;10749;46.296;7.524;2023-02-26T04:15:49;4.53;;;2.50;;
21181;SDS011;10749;46.296;7.524;2023-02-26T04:18:14;5.43;;;2.83;;
21181;SDS011;10749;46.296;7.524;2023-02-26T04:20:39;4.07;;;2.30;;
21181;SDS011;10749;46.296;7.524;2023-02-26T04:23:05;4.10;;;2.70;;
21181;SDS011;10749;46.296;7.524;2023-02-26T04:25:30;3.83;;;2.60;;
21181;SDS011;10749;46.296;7.524;2023-02-26T04:27:55;3.97;;;2.57;;
21181;SDS011;10749;46.296;7.524;2023-02-26T04:30:21;5.27;;;2.73;;
21181;SDS011;10749;46.296;7.524;2023-02-26T04:32:46;4.57;;;2.53;;
21181;SDS011;10749;46.296;7.524;2023-02-26T04:35:12;5.27;;;2.63;;
21181;SDS011;10749;46.296;7.524;2023-02-26T04:37:37;5.40;;;3.20;;
21181;SDS011;10749;46.296;7.524;2023-02-26T04:40:03;4.20;;;3.00;;
21181;SDS011;10749;46.296;7.524;2023-02-26T04:42:29;5.83;;;2.97;;
21181;SDS011;10749;46.296;7.524;2023-02-26T04:44:55;4.13;;;2.83;;
21181;SDS011;10749;46.296;7.524;2023-02-26T04:47:20;5.23;;;3.20;;
21181;SDS011;10749;46.296;7.524;2023-02-26T04:49:46;5.17;;;2.97;;
21181;SDS011;10749;46.296;7.524;2023-02-26T04:52:11;6.87;;;3.00;;
21181;SDS011;10749;46.296;7.524;2023-02-26T04:54:37;4.97;;;2.83;;
21181;SDS011;10749;46.296;7.524;2023-02-26T04:57:02;5.23;;;2.43;;
21181;SDS011;10749;46.296;7.524;2023-02-26T04:59:28;5.40;;;2.33;;
21181;SDS011;10749;46.296;7.524;2023-02-26T05:01:53;5.60;;;2.33;;
21181;SDS011;10749;46.296;7.524;2023-02-26T05:04:18;4.50;;;2.43;;
21181;SDS011;10749;46.296;7.524;2023-02-26T05:06:43;4.30;;;2.40;;
21181;SDS011;10749;46.296;7.524;2023-02-26T05:09:09;4.20;;;2.30;;
21181;SDS011;10749;46.296;7.524;2023-02-26T05:11:34;5.33;;;2.30;;
21181;SDS011;10749;46.296;7.524;2023-02-26T05:14:00;3.23;;;2.40;;
21181;SDS011;10749;46.296;7.524;2023-02-26T05:16:25;5.10;;;2.80;;
21181;SDS011;10749;46.296;7.524;2023-02-26T05:18:50;3.50;;;2.53;;
21181;SDS011;10749;46.296;7.524;2023-02-26T05:21:15;4.10;;;2.83;;
21181;SDS011;10749;46.296;7.524;2023-02-26T05:23:41;5.90;;;2.80;;
21181;SDS011;10749;46.296;7.524;2023-02-26T05:26:06;4.97;;;2.83;;
21181;SDS011;10749;46.296;7.524;2023-02-26T05:28:31;4.93;;;2.80;;
21181;SDS011;10749;46.296;7.524;2023-02-26T05:30:58;6.60;;;3.00;;
21181;SDS011;10749;46.296;7.524;2023-02-26T05:33:23;5.97;;;2.80;;
21181;SDS011;10749;46.296;7.524;2023-02-26T05:35:49;6.30;;;3.03;;
21181;SDS011;10749;46.296;7.524;2023-02-26T05:38:14;4.57;;;3.00;;
21181;SDS011;10749;46.296;7.524;2023-02-26T05:40:40;5.73;;;3.50;;
21181;SDS011;10749;46.296;7.524;2023-02-26T05:43:05;4.30;;;2.50;;
21181;SDS011;10749;46.296;7.524;2023-02-26T05:45:31;3.87;;;2.57;;
21181;SDS011;10749;46.296;7.524;2023-02-26T05:47:57;6.77;;;2.70;;
21181;SDS011;10749;46.296;7.524;2023-02-26T05:50:22;5.23;;;2.90;;
21181;SDS011;10749;46.296;7.524;2023-02-26T05:52:47;4.43;;;2.67;;
21181;SDS011;10749;46.296;7.524;2023-02-26T05:55:13;5.00;;;2.63;;
21181;SDS011;10749;46.296;7.524;2023-02-26T05:57:38;4.77;;;2.27;;
21181;SDS011;10749;46.296;7.524;2023-02-26T06:00:05;4.27;;;2.50;;
21181;SDS011;10749;46.296;7.524;2023-02-26T06:02:31;4.70;;;2.80;;
21181;SDS011;10749;46.296;7.524;2023-02-26T06:04:56;3.30;;;2.30;;
21181;SDS011;10749;46.296;7.524;2023-02-26T06:07:21;5.50;;;2.47;;
21181;SDS011;10749;46.296;7.524;2023-02-26T06:09:48;5.40;;;2.67;;
21181;SDS011;10749;46.296;7.524;2023-02-26T06:12:13;4.40;;;2.60;;
21181;SDS011;10749;46.296;7.524;2023-02-26T06:14:39;3.03;;;2.27;;
21181;SDS011;10749;46.296;7.524;2023-02-26T06:17:04;4.30;;;2.40;;
21181;SDS011;10749;46.296;7.524;2023-02-26T06:19:30;2.87;;;2.20;;
21181;SDS011;10749;46.296;7.524;2023-02-26T06:21:56;4.90;;;2.30;;
21181;SDS011;10749;46.296;7.524;2023-02-26T06:24:22;4.67;;;2.43;;
21181;SDS011;10749;46.296;7.524;2023-02-26T06:26:47;3.97;;;2.40;;
21181;SDS011;10749;46.296;7.524;2023-02-26T06:29:12;3.77;;;2.50;;
21181;SDS011;10749;46.296;7.524;2023-02-26T06:31:38;3.67;;;2.40;;
21181;SDS011;10749;46.296;7.524;2023-02-26T06:34:03;5.80;;;2.67;;
21181;SDS011;10749;46.296;7.524;2023-02-26T06:36:28;3.63;;;2.73;;
21181;SDS011;10749;46.296;7.524;2023-02-26T06:38:54;3.63;;;2.40;;
21181;SDS011;10749;46.296;7.524;2023-02-26T06:41:19;3.53;;;2.20;;
21181;SDS011;10749;46.296;7.524;2023-02-26T06:43:44;5.90;;;2.80;;
21181;SDS011;10749;46.296;7.524;2023-02-26T06:46:10;5.07;;;2.40;;
21181;SDS011;10749;46.296;7.524;2023-02-26T06:48:35;3.73;;;2.37;;
21181;SDS011;10749;46.296;7.524;2023-02-26T06:51:00;4.30;;;2.57;;
21181;SDS011;10749;46.296;7.524;2023-02-26T06:53:26;4.93;;;2.40;;
21181;SDS011;10749;46.296;7.524;2023-02-26T06:55:51;3.60;;;2.50;;
21181;SDS011;10749;46.296;7.524;2023-02-26T06:58:17;5.80;;;2.60;;
21181;SDS011;10749;46.296;7.524;2023-02-26T07:00:42;3.27;;;2.30;;
21181;SDS011;10749;46.296;7.524;2023-02-26T07:03:10;4.17;;;2.30;;
21181;SDS011;10749;46.296;7.524;2023-02-26T07:05:37;4.00;;;2.30;;
21181;SDS011;10749;46.296;7.524;2023-02-26T07:08:02;3.43;;;2.17;;
21181;SDS011;10749;46.296;7.524;2023-02-26T07:10:29;3.00;;;2.13;;
21181;SDS011;10749;46.296;7.524;2023-02-26T07:12:56;4.67;;;2.77;;
21181;SDS011;10749;46.296;7.524;2023-02-26T07:15:21;3.73;;;2.40;;
21181;SDS011;10749;46.296;7.524;2023-02-26T07:17:47;4.87;;;2.57;;
21181;SDS011;10749;46.296;7.524;2023-02-26T07:20:12;4.83;;;2.90;;
21181;SDS011;10749;46.296;7.524;2023-02-26T07:22:38;4.27;;;2.70;;
21181;SDS011;10749;46.296;7.524;2023-02-26T07:25:03;4.47;;;2.30;;
21181;SDS011;10749;46.296;7.524;2023-02-26T07:27:30;3.40;;;2.47;;
21181;SDS011;10749;46.296;7.524;2023-02-26T07:29:57;2.70;;;1.90;;
21181;SDS011;10749;46.296;7.524;2023-02-26T07:32:22;3.60;;;2.00;;
21181;SDS011;10749;46.296;7.524;2023-02-26T07:34:48;4.23;;;2.40;;
21181;SDS011;10749;46.296;7.524;2023-02-26T07:37:13;4.90;;;2.37;;
21181;SDS011;10749;46.296;7.524;2023-02-26T07:39:38;5.93;;;2.50;;
21181;SDS011;10749;46.296;7.524;2023-02-26T07:42:04;6.90;;;2.17;;
21181;SDS011;10749;46.296;7.524;2023-02-26T07:44:29;4.57;;;2.40;;
21181;SDS011;10749;46.296;7.524;2023-02-26T07:46:54;4.33;;;1.90;;
21181;SDS011;10749;46.296;7.524;2023-02-26T07:49:20;5.10;;;2.40;;
21181;SDS011;10749;46.296;7.524;2023-02-26T07:51:45;3.60;;;2.20;;
21181;SDS011;10749;46.296;7.524;2023-02-26T07:54:12;5.83;;;3.40;;
21181;SDS011;10749;46.296;7.524;2023-02-26T07:56:38;4.30;;;2.70;;
21181;SDS011;10749;46.296;7.524;2023-02-26T07:59:05;6.73;;;3.30;;
21181;SDS011;10749;46.296;7.524;2023-02-26T08:01:30;4.23;;;2.83;;
21181;SDS011;10749;46.296;7.524;2023-02-26T08:03:56;7.20;;;2.70;;
21181;SDS011;10749;46.296;7.524;2023-02-26T08:06:21;3.80;;;2.60;;
21181;SDS011;10749;46.296;7.524;2023-02-26T08:08:46;3.90;;;2.20;;
21181;SDS011;10749;46.296;7.524;2023-02-26T08:11:11;2.90;;;2.10;;
21181;SDS011;10749;46.296;7.524;2023-02-26T08:13:37;3.27;;;2.03;;
21181;SDS011;10749;46.296;7.524;2023-02-26T08:16:02;2.73;;;2.10;;
21181;SDS011;10749;46.296;7.524;2023-02-26T08:18:27;4.03;;;2.03;;
21181;SDS011;10749;46.296;7.524;2023-02-26T08:20:53;4.13;;;2.20;;
21181;SDS011;10749;46.296;7.524;2023-02-26T08:23:18;2.80;;;1.80;;
21181;SDS011;10749;46.296;7.524;2023-02-26T08:25:43;3.03;;;1.70;;
21181;SDS011;10749;46.296;7.524;2023-02-26T08:28:09;3.57;;;1.90;;
21181;SDS011;10749;46.296;7.524;2023-02-26T08:30:35;2.87;;;1.80;;
21181;SDS011;10749;46.296;7.524;2023-02-26T08:33:00;4.10;;;2.07;;
21181;SDS011;10749;46.296;7.524;2023-02-26T08:35:25;3.97;;;1.90;;
21181;SDS011;10749;46.296;7.524;2023-02-26T08:37:51;3.00;;;2.00;;
21181;SDS011;10749;46.296;7.524;2023-02-26T08:40:16;3.77;;;2.20;;
21181;SDS011;10749;46.296;7.524;2023-02-26T08:42:42;4.30;;;1.97;;
21181;SDS011;10749;46.296;7.524;2023-02-26T08:45:07;3.27;;;1.90;;
21181;SDS011;10749;46.296;7.524;2023-02-26T08:47:33;3.00;;;2.03;;
21181;SDS011;10749;46.296;7.524;2023-02-26T08:49:58;3.30;;;1.80;;
21181;SDS011;10749;46.296;7.524;2023-02-26T08:52:24;2.07;;;1.60;;
21181;SDS011;10749;46.296;7.524;2023-02-26T08:54:49;2.63;;;1.50;;
21181;SDS011;10749;46.296;7.524;2023-02-26T08:57:15;2.27;;;1.63;;
21181;SDS011;10749;46.296;7.524;2023-02-26T08:59:40;2.43;;;1.57;;
21181;SDS011;10749;46.296;7.524;2023-02-26T09:02:06;2.63;;;1.50;;
21181;SDS011;10749;46.296;7.524;2023-02-26T09:04:31;2.47;;;1.60;;
21181;SDS011;10749;46.296;7.524;2023-02-26T09:06:56;3.07;;;1.80;;
21181;SDS011;10749;46.296;7.524;2023-02-26T09:09:22;2.37;;;1.60;;
21181;SDS011;10749;46.296;7.524;2023-02-26T09:11:47;2.57;;;1.67;;
21181;SDS011;10749;46.296;7.524;2023-02-26T09:14:12;3.70;;;1.33;;
21181;SDS011;10749;46.296;7.524;2023-02-26T09:16:38;3.60;;;1.73;;
21181;SDS011;10749;46.296;7.524;2023-02-26T09:19:04;3.07;;;1.43;;
21181;SDS011;10749;46.296;7.524;2023-02-26T09:21:30;3.43;;;1.70;;
21181;SDS011;10749;46.296;7.524;2023-02-26T09:23:56;1.77;;;1.47;;
21181;SDS011;10749;46.296;7.524;2023-02-26T09:26:21;3.23;;;1.67;;
21181;SDS011;10749;46.296;7.524;2023-02-26T09:28:47;1.83;;;1.20;;
21181;SDS011;10749;46.296;7.524;2023-02-26T09:31:12;1.70;;;1.40;;
21181;SDS011;10749;46.296;7.524;2023-02-26T09:33:37;1.93;;;1.50;;
21181;SDS011;10749;46.296;7.524;2023-02-26T09:36:03;1.73;;;1.50;;
21181;SDS011;10749;46.296;7.524;2023-02-26T09:38:28;3.00;;;1.40;;
21181;SDS011;10749;46.296;7.524;2023-02-26T09:41:07;2.30;;;1.37;;
21181;SDS011;10749;46.296;7.524;2023-02-26T09:46:40;1.80;;;1.40;;
21181;SDS011;10749;46.296;7.524;2023-02-26T09:51:36;2.17;;;1.37;;
21181;SDS011;10749;46.296;7.524;2023-02-26T09:54:04;1.80;;;1.30;;
21181;SDS011;10749;46.296;7.524;2023-02-26T09:56:40;2.30;;;1.20;;
21181;SDS011;10749;46.296;7.524;2023-02-26T09:59:07;1.67;;;1.20;;
21181;SDS011;10749;46.296;7.524;2023-02-26T10:01:36;2.50;;;1.80;;
21181;SDS011;10749;46.296;7.524;2023-02-26T10:07:06;2.70;;;1.23;;
21181;SDS011;10749;46.296;7.524;2023-02-26T10:12:25;4.67;;;1.60;;
21181;SDS011;10749;46.296;7.524;2023-02-26T10:20:09;2.50;;;1.30;;
21181;SDS011;10749;46.296;7.524;2023-02-26T10:25:53;1.90;;;1.40;;
21181;SDS011;10749;46.296;7.524;2023-02-26T10:43:33;4.20;;;2.47;;
21181;SDS011;10749;46.296;7.524;2023-02-26T10:46:07;1.97;;;1.40;;
21181;SDS011;10749;46.296;7.524;2023-02-26T10:51:40;1.30;;;1.20;;
21181;SDS011;10749;46.296;7.524;2023-02-26T10:56:43;2.50;;;1.30;;
21181;SDS011;10749;46.296;7.524;2023-02-26T10:59:09;1.73;;;1.20;;
21181;SDS011;10749;46.296;7.524;2023-02-26T11:01:34;2.47;;;1.27;;
21181;SDS011;10749;46.296;7.524;2023-02-26T11:04:01;2.70;;;1.40;;
21181;SDS011;10749;46.296;7.524;2023-02-26T11:06:32;1.47;;;1.27;;
21181;SDS011;10749;46.296;7.524;2023-02-26T11:09:01;3.30;;;1.20;;
21181;SDS011;10749;46.296;7.524;2023-02-26T11:11:38;1.67;;;1.20;;
21181;SDS011;10749;46.296;7.524;2023-02-26T11:14:06;1.57;;;1.10;;
21181;SDS011;10749;46.296;7.524;2023-02-26T11:16:33;3.67;;;1.10;;
21181;SDS011;10749;46.296;7.524;2023-02-26T11:18:59;1.43;;;1.10;;
21181;SDS011;10749;46.296;7.524;2023-02-26T11:21:26;1.10;;;0.90;;
21181;SDS011;10749;46.296;7.524;2023-02-26T11:23:59;2.70;;;1.57;;
21181;SDS011;10749;46.296;7.524;2023-02-26T11:26:33;1.87;;;1.37;;
21181;SDS011;10749;46.296;7.524;2023-02-26T11:29:00;2.50;;;1.10;;
21181;SDS011;10749;46.296;7.524;2023-02-26T11:31:25;1.53;;;1.00;;
21181;SDS011;10749;46.296;7.524;2023-02-26T11:36:38;1.53;;;0.90;;
21181;SDS011;10749;46.296;7.524;2023-02-26T11:39:07;2.03;;;1.00;;
21181;SDS011;10749;46.296;7.524;2023-02-26T11:41:38;1.73;;;1.00;;
21181;SDS011;10749;46.296;7.524;2023-02-26T11:44:05;1.57;;;1.03;;
21181;SDS011;10749;46.296;7.524;2023-02-26T11:46:45;1.23;;;1.10;;
21181;SDS011;10749;46.296;7.524;2023-02-26T11:49:16;1.53;;;1.00;;
21181;SDS011;10749;46.296;7.524;2023-02-26T11:51:45;2.00;;;1.00;;
21181;SDS011;10749;46.296;7.524;2023-02-26T11:54:19;1.70;;;1.10;;
21181;SDS011;10749;46.296;7.524;2023-02-26T11:56:51;3.27;;;1.03;;
21181;SDS011;10749;46.296;7.524;2023-02-26T11:59:21;2.17;;;1.40;;
21181;SDS011;10749;46.296;7.524;2023-02-26T12:01:48;4.63;;;1.90;;
21181;SDS011;10749;46.296;7.524;2023-02-26T12:04:20;3.33;;;1.27;;
21181;SDS011;10749;46.296;7.524;2023-02-26T12:06:48;1.67;;;1.00;;
21181;SDS011;10749;46.296;7.524;2023-02-26T12:09:15;1.37;;;0.90;;
21181;SDS011;10749;46.296;7.524;2023-02-26T12:20:24;1.00;;;0.80;;
21181;SDS011;10749;46.296;7.524;2023-02-26T12:31:13;1.27;;;0.70;;
21181;SDS011;10749;46.296;7.524;2023-02-26T12:34:01;1.63;;;0.80;;
21181;SDS011;10749;46.296;7.524;2023-02-26T12:44:47;1.40;;;0.70;;
21181;SDS011;10749;46.296;7.524;2023-02-26T12:59:06;1.10;;;0.80;;
21181;SDS011;10749;46.296;7.524;2023-02-26T13:07:10;0.80;;;0.50;;
21181;SDS011;10749;46.296;7.524;2023-02-26T13:15:26;0.57;;;0.50;;
21181;SDS011;10749;46.296;7.524;2023-02-26T13:20:55;1.60;;;0.67;;
21181;SDS011;10749;46.296;7.524;2023-02-26T13:23:24;0.90;;;0.60;;
21181;SDS011;10749;46.296;7.524;2023-02-26T13:25:58;0.80;;;0.60;;
21181;SDS011;10749;46.296;7.524;2023-02-26T13:28:35;3.07;;;1.00;;
21181;SDS011;10749;46.296;7.524;2023-02-26T13:31:09;1.97;;;0.60;;
21181;SDS011;10749;46.296;7.524;2023-02-26T13:33:39;1.00;;;0.70;;
21181;SDS011;10749;46.296;7.524;2023-02-26T13:36:07;2.50;;;0.60;;
21181;SDS011;10749;46.296;7.524;2023-02-26T13:38:39;1.07;;;0.70;;
21181;SDS011;10749;46.296;7.524;2023-02-26T13:41:50;1.03;;;0.50;;
21181;SDS011;10749;46.296;7.524;2023-02-26T13:44:31;0.63;;;0.60;;
21181;SDS011;10749;46.296;7.524;2023-02-26T13:55:48;1.70;;;0.60;;
21181;SDS011;10749;46.296;7.524;2023-02-26T14:01:07;0.80;;;0.70;;
21181;SDS011;10749;46.296;7.524;2023-02-26T14:03:43;2.10;;;0.80;;
21181;SDS011;10749;46.296;7.524;2023-02-26T14:08:44;1.80;;;0.80;;
21181;SDS011;10749;46.296;7.524;2023-02-26T14:13:41;3.10;;;1.40;;
21181;SDS011;10749;46.296;7.524;2023-02-26T14:16:22;1.10;;;0.70;;
21181;SDS011;10749;46.296;7.524;2023-02-26T14:18:51;3.40;;;0.80;;
21181;SDS011;10749;46.296;7.524;2023-02-26T14:24:14;1.27;;;0.97;;
21181;SDS011;10749;46.296;7.524;2023-02-26T14:26:44;0.70;;;0.70;;
21181;SDS011;10749;46.296;7.524;2023-02-26T14:29:24;1.37;;;0.80;;
21181;SDS011;10749;46.296;7.524;2023-02-26T14:34:53;1.57;;;0.90;;
21181;SDS011;10749;46.296;7.524;2023-02-26T14:37:24;1.13;;;0.80;;
21181;SDS011;10749;46.296;7.524;2023-02-26T14:42:29;1.53;;;0.90;;
21181;SDS011;10749;46.296;7.524;2023-02-26T14:45:09;2.40;;;1.10;;
21181;SDS011;10749;46.296;7.524;2023-02-26T14:47:47;2.17;;;1.00;;
21181;SDS011;10749;46.296;7.524;2023-02-26T14:50:15;2.40;;;0.97;;
21181;SDS011;10749;46.296;7.524;2023-02-26T14:55:20;3.33;;;1.07;;
21181;SDS011;10749;46.296;7.524;2023-02-26T14:58:14;1.33;;;0.80;;
21181;SDS011;10749;46.296;7.524;2023-02-26T15:18:01;1.53;;;1.10;;
21181;SDS011;10749;46.296;7.524;2023-02-26T15:26:06;1.47;;;0.90;;
21181;SDS011;10749;46.296;7.524;2023-02-26T15:28:38;2.13;;;1.30;;
21181;SDS011;10749;46.296;7.524;2023-02-26T15:31:05;1.27;;;0.93;;
21181;SDS011;10749;46.296;7.524;2023-02-26T15:33:32;1.50;;;1.00;;
21181;SDS011;10749;46.296;7.524;2023-02-26T15:35:59;2.80;;;1.13;;
21181;SDS011;10749;46.296;7.524;2023-02-26T15:38:25;1.77;;;0.90;;
21181;SDS011;10749;46.296;7.524;2023-02-26T15:40:52;1.17;;;0.93;;
21181;SDS011;10749;46.296;7.524;2023-02-26T15:43:25;2.63;;;1.00;;
21181;SDS011;10749;46.296;7.524;2023-02-26T15:45:53;1.33;;;0.90;;
21181;SDS011;10749;46.296;7.524;2023-02-26T15:50:57;1.27;;;1.00;;
21181;SDS011;10749;46.296;7.524;2023-02-26T15:53:44;2.43;;;1.50;;
21181;SDS011;10749;46.296;7.524;2023-02-26T15:56:17;1.47;;;1.10;;
21181;SDS011;10749;46.296;7.524;2023-02-26T15:58:51;1.37;;;0.80;;
21181;SDS011;10749;46.296;7.524;2023-02-26T16:01:21;2.27;;;1.17;;
21181;SDS011;10749;46.296;7.524;2023-02-26T16:03:49;1.37;;;1.00;;
21181;SDS011;10749;46.296;7.524;2023-02-26T16:06:17;1.40;;;1.00;;
21181;SDS011;10749;46.296;7.524;2023-02-26T16:08:47;1.30;;;1.00;;
21181;SDS011;10749;46.296;7.524;2023-02-26T16:11:12;1.83;;;1.10;;
21181;SDS011;10749;46.296;7.524;2023-02-26T16:13:39;2.17;;;1.37;;
21181;SDS011;10749;46.296;7.524;2023-02-26T16:16:07;1.30;;;0.90;;
21181;SDS011;10749;46.296;7.524;2023-02-26T16:18:38;1.53;;;1.10;;
21181;SDS011;10749;46.296;7.524;2023-02-26T16:21:05;2.10;;;0.90;;
21181;SDS011;10749;46.296;7.524;2023-02-26T16:23:43;2.40;;;0.90;;
21181;SDS011;10749;46.296;7.524;2023-02-26T16:26:22;2.03;;;1.00;;
21181;SDS011;10749;46.296;7.524;2023-02-26T16:28:54;2.00;;;0.80;;
21181;SDS011;10749;46.296;7.524;2023-02-26T16:31:23;1.70;;;1.00;;
21181;SDS011;10749;46.296;7.524;2023-02-26T16:36:19;1.20;;;0.90;;
21181;SDS011;10749;46.296;7.524;2023-02-26T16:38:49;1.97;;;1.00;;
21181;SDS011;10749;46.296;7.524;2023-02-26T16:41:24;1.40;;;1.10;;
21181;SDS011;10749;46.296;7.524;2023-02-26T16:43:53;4.77;;;1.63;;
21181;SDS011;10749;46.296;7.524;2023-02-26T16:46:29;2.37;;;1.60;;
21181;SDS011;10749;46.296;7.524;2023-02-26T16:49:29;1.83;;;0.90;;
21181;SDS011;10749;46.296;7.524;2023-02-26T16:51:53;2.70;;;1.13;;
21181;SDS011;10749;46.296;7.524;2023-02-26T16:54:31;2.10;;;1.10;;
21181;SDS011;10749;46.296;7.524;2023-02-26T16:57:03;3.13;;;1.40;;
21181;SDS011;10749;46.296;7.524;2023-02-26T16:59:36;1.97;;;1.30;;
21181;SDS011;10749;46.296;7.524;2023-02-26T17:02:03;1.77;;;1.20;;
21181;SDS011;10749;46.296;7.524;2023-02-26T17:04:37;1.53;;;0.90;;
21181;SDS011;10749;46.296;7.524;2023-02-26T17:07:16;1.30;;;1.00;;
21181;SDS011;10749;46.296;7.524;2023-02-26T17:09:50;2.03;;;1.00;;
21181;SDS011;10749;46.296;7.524;2023-02-26T17:12:27;2.63;;;1.20;;
21181;SDS011;10749;46.296;7.524;2023-02-26T17:15:10;1.77;;;1.07;;
21181;SDS011;10749;46.296;7.524;2023-02-26T17:17:40;1.73;;;1.30;;
21181;SDS011;10749;46.296;7.524;2023-02-26T17:20:05;2.07;;;1.20;;
21181;SDS011;10749;46.296;7.524;2023-02-26T17:22:31;1.77;;;1.07;;
21181;SDS011;10749;46.296;7.524;2023-02-26T17:24:56;1.70;;;1.20;;
21181;SDS011;10749;46.296;7.524;2023-02-26T17:27:39;1.87;;;1.13;;
21181;SDS011;10749;46.296;7.524;2023-02-26T17:30:05;2.93;;;1.17;;
21181;SDS011;10749;46.296;7.524;2023-02-26T17:32:33;1.70;;;1.30;;
21181;SDS011;10749;46.296;7.524;2023-02-26T17:34:59;3.07;;;1.43;;
21181;SDS011;10749;46.296;7.524;2023-02-26T17:37:29;2.03;;;1.23;;
21181;SDS011;10749;46.296;7.524;2023-02-26T17:39:57;2.00;;;1.33;;
21181;SDS011;10749;46.296;7.524;2023-02-26T17:42:23;2.77;;;1.60;;
21181;SDS011;10749;46.296;7.524;2023-02-26T17:44:49;1.60;;;1.33;;
21181;SDS011;10749;46.296;7.524;2023-02-26T17:47:16;2.20;;;1.50;;
21181;SDS011;10749;46.296;7.524;2023-02-26T17:49:43;3.47;;;2.50;;
21181;SDS011;10749;46.296;7.524;2023-02-26T17:52:09;2.37;;;1.70;;
21181;SDS011;10749;46.296;7.524;2023-02-26T17:54:34;2.13;;;1.50;;
21181;SDS011;10749;46.296;7.524;2023-02-26T17:57:00;1.33;;;1.23;;
21181;SDS011;10749;46.296;7.524;2023-02-26T17:59:26;2.80;;;1.30;;
21181;SDS011;10749;46.296;7.524;2023-02-26T18:01:52;1.60;;;1.30;;
21181;SDS011;10749;46.296;7.524;2023-02-26T18:04:17;1.60;;;1.30;;
21181;SDS011;10749;46.296;7.524;2023-02-26T18:06:43;2.33;;;1.30;;
21181;SDS011;10749;46.296;7.524;2023-02-26T18:09:09;1.67;;;1.30;;